Pagrindinis puslapis
METAR-TAF:

METAR-TAF

Oro uostai :

Veliko Tirnovas, Bulgarija

platuma: 43-09N, ilguma: 025-36E, Aukštis: 87 m

Dabartinis oras

Ataskaita buvo paskelbta 26 minutes, ne 15:30 UTC
Vėjas 6 kt iš Rytų/Šiaurės Rytų, svyruoja nuo Šiaurės/Šiaurės Rytų ir Rytų
Temperatūra 26°C
Drėgmė 39%
Slėgis 1018 hPa
Matomumas 10 km arba daugiau

METAR: LBGO 211530Z AUTO 06006KT 030V100 9999 NCD 26/11 Q1018 NOSIG

Laikas: 18:56 (15:56 UTC)

Prognozė

Ataskaita buvo paskelbta 4 valandos ir 56 minutes, ne 11:00 UTC
Prognozė galioja nuo 21 metu 12 UTC su 22 metu 12 UTC
Vėjas 10 kt iš Rytų
Matomumas 10 km arba daugiau
nėra debesų žemiau 1500 m ir nėra kamuolinių lietaus debesų
Tapsmas
nuo 21 metu 17 UTC su 21 metu 19 UTC
Vėjas 4 kt nuo kintamojo kryptimis

TAF: LBGO 211100Z 2112/2212 09010KT CAVOK BECMG 2117/2119 VRB04KT

Orai ataskaitas ir orų prognozės (METAR, TAF).

turimą stotys yra geltonos ir raudonos taškus žemėlapyje.

Perkelti pele per norėdami pamatyti stoties vardą.

Tada spustelėkite, norėdami matyti oro stebėjimo ir prognozės.

Norėdami pakeisti žemėlapį: spustelėkite ant žalios mygtukų su juodo kryžiaus žemyn,; žalią mygtuką su brūkšneliu, jei norite nutolinti; arba žalių rodyklių gretimoms žemėlapius.


METAR-TAF: